createdAt,value
2023-05-19T00:03:28.571Z,101520.48
2023-05-19T00:08:32.101Z,101522.05
2023-05-19T00:13:33.889Z,101519.66
2023-05-19T00:18:35.417Z,101516.91
2023-05-19T00:23:36.985Z,101515.36
2023-05-19T00:28:38.587Z,101510.73
2023-05-19T00:33:40.175Z,101505.41
2023-05-19T00:38:41.769Z,101507.85
2023-05-19T00:43:43.369Z,101509.58
2023-05-19T00:48:45.680Z,101508.38
2023-05-19T00:53:51.060Z,101508.38
2023-05-19T00:58:53.149Z,101503.91
2023-05-19T01:03:59.217Z,101500.62
2023-05-19T01:09:01.307Z,101497.69
2023-05-19T01:14:02.996Z,101494.45
2023-05-19T01:19:19.995Z,101494.45
2023-05-19T01:24:34.041Z,101490.16
2023-05-19T01:29:38.444Z,101491.38
2023-05-19T01:34:44.240Z,101486.92
2023-05-19T01:39:46.424Z,101487.95
2023-05-19T01:44:48.352Z,101484.19
2023-05-19T01:49:49.938Z,101478.70
2023-05-19T01:54:51.542Z,101480.27
2023-05-19T02:00:16.739Z,101476.66
2023-05-19T02:05:35.320Z,101478.92
2023-05-19T02:10:40.580Z,101476.85
2023-05-19T02:15:42.565Z,101478.24
2023-05-19T02:20:44.297Z,101474.80
2023-05-19T02:25:45.871Z,101471.54
2023-05-19T02:30:47.543Z,101471.88
2023-05-19T02:35:49.251Z,101469.31
2023-05-19T02:40:53.049Z,101467.26
2023-05-19T02:45:54.616Z,101472.92
2023-05-19T02:50:56.165Z,101478.95
2023-05-19T02:55:57.728Z,101479.47
2023-05-19T03:00:59.461Z,101477.59
2023-05-19T03:06:01.925Z,101477.59
2023-05-19T03:11:03.803Z,101479.83
2023-05-19T03:16:08.373Z,101482.56
2023-05-19T03:21:10.099Z,101482.39
2023-05-19T03:26:11.701Z,101486.52
2023-05-19T03:31:13.392Z,101486.16
2023-05-19T03:36:15.000Z,101488.58
2023-05-19T03:41:16.541Z,101487.54
2023-05-19T03:46:18.223Z,101485.65
2023-05-19T03:51:19.848Z,101487.70
2023-05-19T03:56:23.668Z,101488.91
2023-05-19T04:01:25.322Z,101485.98
2023-05-19T04:06:26.920Z,101483.56
2023-05-19T04:11:28.442Z,101487.86
2023-05-19T04:16:30.143Z,101485.77
2023-05-19T04:21:31.776Z,101486.62
2023-05-19T04:26:34.480Z,101485.60
2023-05-19T04:31:36.528Z,101486.79
2023-05-19T04:36:38.448Z,101488.66
2023-05-19T04:41:40.625Z,101484.02
2023-05-19T04:46:42.860Z,101483.64
2023-05-19T04:51:46.131Z,101486.03
2023-05-19T04:56:47.659Z,101490.14
2023-05-19T05:01:49.264Z,101492.86
2023-05-19T05:06:50.876Z,101492.16
2023-05-19T05:11:52.796Z,101494.17
2023-05-19T05:16:55.187Z,101491.05
2023-05-19T05:21:57.407Z,101489.95
2023-05-19T05:26:59.531Z,101484.86
2023-05-19T05:32:01.171Z,101486.98
2023-05-19T05:37:02.927Z,101485.22
2023-05-19T05:42:04.698Z,101487.40
2023-05-19T05:47:07.073Z,101493.92
2023-05-19T05:52:11.903Z,101493.88
2023-05-19T05:57:13.961Z,101488.52
2023-05-19T06:02:15.565Z,101486.98
2023-05-19T06:07:17.290Z,101484.55
2023-05-19T06:12:19.018Z,101486.14
2023-05-19T06:17:20.524Z,101490.34
2023-05-19T06:22:22.051Z,101493.11
2023-05-19T06:27:23.664Z,101496.20
2023-05-19T06:32:25.297Z,101488.90
2023-05-19T06:37:26.930Z,101490.36
2023-05-19T06:42:28.449Z,101489.74
2023-05-19T06:47:30.383Z,101487.76
2023-05-19T06:52:31.948Z,101491.83
2023-05-19T06:57:33.589Z,101490.77
2023-05-19T07:02:35.189Z,101491.42
2023-05-19T07:07:39.678Z,101491.70
2023-05-19T07:12:41.236Z,101489.09
2023-05-19T07:17:42.821Z,101487.80
2023-05-19T07:22:44.422Z,101483.27
2023-05-19T07:27:46.282Z,101487.34
2023-05-19T07:32:48.121Z,101491.14
2023-05-19T07:37:51.680Z,101489.96
2023-05-19T07:42:53.222Z,101487.75
2023-05-19T07:47:55.154Z,101486.89
2023-05-19T07:52:56.819Z,101479.65
2023-05-19T07:57:58.469Z,101480.33
2023-05-19T08:03:00.289Z,101477.37
2023-05-19T08:08:02.943Z,101477.55
2023-05-19T08:13:05.204Z,101480.36
2023-05-19T08:18:07.107Z,101474.84
2023-05-19T08:23:08.768Z,101473.04
2023-05-19T08:28:10.738Z,101469.86
2023-05-19T08:33:12.458Z,101473.98
2023-05-19T08:38:14.125Z,101480.16
2023-05-19T08:43:15.799Z,101478.56
2023-05-19T08:48:19.696Z,101481.70
2023-05-19T08:58:50.182Z,101496.16
2023-05-19T09:03:52.181Z,101493.19
2023-05-19T09:08:54.125Z,101491.04
2023-05-19T09:13:57.757Z,101489.11
2023-05-19T09:19:01.188Z,101487.08
2023-05-19T09:24:08.309Z,101484.96
2023-05-19T09:29:13.573Z,101482.69
2023-05-19T09:34:15.688Z,101481.45
2023-05-19T09:39:18.842Z,101485.81
2023-05-19T09:44:20.503Z,101481.70
2023-05-19T09:49:23.999Z,101484.16
2023-05-19T09:54:28.446Z,101484.52
2023-05-19T09:59:33.448Z,101485.36
2023-05-19T10:04:36.417Z,101486.55
2023-05-19T10:09:41.393Z,101484.35
2023-05-19T10:14:42.943Z,101480.21
2023-05-19T10:19:45.786Z,101481.77
2023-05-19T10:24:47.350Z,101481.06
2023-05-19T10:29:51.885Z,101475.41
2023-05-19T10:35:05.337Z,101468.81
2023-05-19T10:40:12.526Z,101468.53
2023-05-19T10:45:22.503Z,101464.59
2023-05-19T10:50:24.112Z,101462.64
2023-05-19T10:55:46.735Z,101465.44
2023-05-19T11:01:00.136Z,101468.13
2023-05-19T11:06:29.905Z,101469.73
2023-05-19T11:11:48.211Z,101464.99
2023-05-19T11:16:51.543Z,101466.23
2023-05-19T11:21:57.576Z,101462.98
2023-05-19T11:26:59.132Z,101464.24
2023-05-19T11:32:01.008Z,101464.28
2023-05-19T11:37:02.891Z,101466.99
2023-05-19T11:42:04.731Z,101469.70
2023-05-19T11:47:06.684Z,101465.85
2023-05-19T11:52:08.374Z,101463.78
2023-05-19T11:57:11.118Z,101461.69
2023-05-19T12:02:13.898Z,101458.95
2023-05-19T12:07:19.622Z,101465.25
2023-05-19T12:12:22.882Z,101465.50
2023-05-19T12:17:24.618Z,101463.88
2023-05-19T12:22:26.393Z,101474.48
2023-05-19T12:27:28.001Z,101473.48
2023-05-19T12:32:29.730Z,101469.23
2023-05-19T12:37:33.358Z,101470.91
2023-05-19T12:42:35.877Z,101474.97
2023-05-19T12:47:37.777Z,101471.20
2023-05-19T12:52:53.341Z,101463.78
2023-05-19T12:57:57.277Z,101462.30
2023-05-19T13:03:02.265Z,101459.63
2023-05-19T13:08:11.967Z,101461.17
2023-05-19T13:13:14.070Z,101461.89
2023-05-19T13:18:15.767Z,101462.29
2023-05-19T13:23:17.427Z,101463.83
2023-05-19T13:28:19.235Z,101464.82
2023-05-19T13:33:20.965Z,101466.02
2023-05-19T13:38:22.528Z,101459.38
2023-05-19T13:43:24.084Z,101454.15
2023-05-19T13:48:25.666Z,101456.79
2023-05-19T13:53:27.411Z,101454.13
2023-05-19T13:58:29.593Z,101455.49
2023-05-19T14:03:31.188Z,101451.29
2023-05-19T14:08:33.155Z,101449.19
2023-05-19T14:13:38.282Z,101448.23
2023-05-19T14:18:42.677Z,101454.73
2023-05-19T14:23:44.326Z,101454.33
2023-05-19T14:28:46.004Z,101455.14
2023-05-19T14:33:47.624Z,101457.66
2023-05-19T14:38:49.157Z,101463.11
2023-05-19T14:43:50.718Z,101464.00
2023-05-19T14:48:52.255Z,101455.09
2023-05-19T14:53:53.849Z,101458.37
2023-05-19T14:58:55.387Z,101458.85
2023-05-19T15:03:56.946Z,101457.04
2023-05-19T15:08:58.488Z,101463.95
2023-05-19T15:14:00.129Z,101463.70
2023-05-19T15:19:01.778Z,101466.79
2023-05-19T15:24:03.545Z,101467.72
2023-05-19T15:29:05.078Z,101470.84
2023-05-19T15:34:15.690Z,101467.11
2023-05-19T15:39:17.267Z,101464.56
2023-05-19T15:44:18.795Z,101467.42
2023-05-19T15:49:20.405Z,101459.39
2023-05-19T15:54:22.037Z,101457.27
2023-05-19T15:59:23.581Z,101457.33
2023-05-19T16:04:25.122Z,101457.75
2023-05-19T16:09:26.660Z,101456.61
2023-05-19T16:14:31.093Z,101453.64
2023-05-19T16:19:32.772Z,101452.54
2023-05-19T16:24:34.379Z,101452.74
2023-05-19T16:29:35.934Z,101456.86
2023-05-19T16:34:37.556Z,101459.88
2023-05-19T16:39:40.220Z,101463.26
2023-05-19T16:44:42.655Z,101460.17
2023-05-19T16:49:44.537Z,101455.48
2023-05-19T16:54:46.169Z,101450.89
2023-05-19T16:59:49.638Z,101453.75
2023-05-19T17:04:51.255Z,101451.27
2023-05-19T17:09:55.228Z,101456.71
2023-05-19T17:14:57.563Z,101455.33
2023-05-19T17:19:59.757Z,101455.15
2023-05-19T17:25:01.340Z,101456.55
2023-05-19T17:30:03.096Z,101450.34
2023-05-19T17:35:09.055Z,101446.55
2023-05-19T17:40:11.538Z,101446.20
2023-05-19T17:45:13.190Z,101445.71
2023-05-19T17:50:14.970Z,101450.42
2023-05-19T17:55:17.953Z,101456.33
2023-05-19T18:00:20.374Z,101457.38
2023-05-19T18:05:22.857Z,101460.17
2023-05-19T18:10:26.213Z,101466.95
2023-05-19T18:15:27.830Z,101458.64
2023-05-19T18:20:31.032Z,101456.52
2023-05-19T18:25:32.822Z,101459.96
2023-05-19T18:30:40.670Z,101460.66
2023-05-19T18:35:42.380Z,101462.91
2023-05-19T18:40:43.990Z,101467.44
2023-05-19T18:45:48.551Z,101476.82
2023-05-19T18:50:50.138Z,101482.05
2023-05-19T18:55:51.918Z,101490.05
2023-05-19T19:00:56.838Z,101498.44
2023-05-19T19:05:59.828Z,101497.41
2023-05-19T19:11:01.437Z,101501.04
2023-05-19T19:16:03.707Z,101501.73
2023-05-19T19:21:08.364Z,101500.88
2023-05-19T19:26:09.983Z,101502.83
2023-05-19T19:31:11.632Z,101504.93
2023-05-19T19:36:13.675Z,101511.70
2023-05-19T19:41:15.281Z,101509.00
2023-05-19T19:46:16.874Z,101502.84
2023-05-19T19:51:18.632Z,101511.31
2023-05-19T19:56:20.495Z,101512.34
2023-05-19T20:01:23.837Z,101518.75
2023-05-19T20:06:26.114Z,101520.15
2023-05-19T20:11:27.635Z,101523.35
2023-05-19T20:16:29.220Z,101525.83
2023-05-19T20:21:30.851Z,101527.63
2023-05-19T20:26:32.445Z,101528.02
2023-05-19T20:31:34.026Z,101524.04
2023-05-19T20:36:35.574Z,101520.02
2023-05-19T20:41:37.410Z,101519.30
2023-05-19T20:46:39.014Z,101519.98
2023-05-19T20:51:41.113Z,101525.17
2023-05-19T20:56:42.639Z,101523.45
2023-05-19T21:01:45.558Z,101522.77
2023-05-19T21:06:47.190Z,101521.04
2023-05-19T21:11:48.964Z,101520.04
2023-05-19T21:16:53.806Z,101520.93
2023-05-19T21:21:57.072Z,101524.03
2023-05-19T21:26:58.657Z,101524.21
2023-05-19T21:32:00.388Z,101519.55
2023-05-19T21:37:01.931Z,101516.70
2023-05-19T21:42:04.348Z,101520.01
2023-05-19T21:47:06.642Z,101524.50
2023-05-19T21:52:08.261Z,101530.73
2023-05-19T21:57:11.226Z,101530.56
2023-05-19T22:02:12.877Z,101527.30
2023-05-19T22:07:14.467Z,101526.61
2023-05-19T22:12:16.030Z,101523.70
2023-05-19T22:17:17.628Z,101521.98
2023-05-19T22:22:19.168Z,101522.32
2023-05-19T22:27:20.720Z,101520.45
2023-05-19T22:32:22.254Z,101519.92
2023-05-19T22:37:24.672Z,101525.97
2023-05-19T22:42:26.949Z,101521.64
2023-05-19T22:47:29.698Z,101519.59
2023-05-19T22:52:31.485Z,101516.69
2023-05-19T22:57:33.692Z,101514.80
2023-05-19T23:02:35.396Z,101512.42
2023-05-19T23:07:36.994Z,101510.33
2023-05-19T23:12:40.032Z,101508.16
2023-05-19T23:17:41.678Z,101509.45
2023-05-19T23:22:43.268Z,101504.36
2023-05-19T23:27:46.543Z,101506.45
2023-05-19T23:32:48.227Z,101508.05
2023-05-19T23:37:49.787Z,101508.92
2023-05-19T23:42:51.423Z,101504.27
2023-05-19T23:47:53.071Z,101499.24
2023-05-19T23:52:54.676Z,101501.34
2023-05-19T23:57:56.370Z,101500.12
